Colchester, United Kingdom
Current Conditions -  °F | °C
As of 8:50 PM on Tuesday 25 Nov 2014 (Local Time) from EGUW Reporting Station
Light Rain Light Rain  
Wind Chill:   Ceiling: 4500
Heat Index:   Visibility: 6mi
Dew Point:   Wind: 10mph
Humidity: 87%   Direction: 90°E
Pressure: 30.03"   Gusts: NA
Location:  51.89°N, 0.9°E
Report Text: EGUW 252050Z 09009KT 9999 -RA OVC045 08/06 Q1017 BLU TEMPO 6000 WHT
Loading
Personal Weather Stations






























Interactive Weather Map New forecast layout! Learn more

10-Day Weather Forecast

Advertisements
Track Severe Weather on mobile